Latest Weather Observations for Emerald

IDQ60801

Issued at 6:32 pm EST Tuesday 7 July 2015 (issued every 30 minutes, with the page automatically refreshed every 10 minutes)

About weather observations | Map of weather stations | Latest weather observations for QLD | Other Formats
Station Details ID: 035264 Name: EMERALD AIRPORT Lat: -23.57 Lon: 148.18 Height: 189.4 m
Data from the previous 72 hours. | See also: Recent months at Emerald
Date/Time
EST
Temp
°C
App
Temp
°C
Dew
Point
Rel
Hum
%
Delta-T
°C
Wind Press
QNH
hPa
Press
MSL
hPa
Rain
since 9 am
mm
Dir
 
Spd
km/h
Gust
km/h
Spd
kts
Gust
kts
07/06:30pm 19.2 15.9 4.6 38 7.1 SE 11 13 6 7 1017.7 - 0.0
07/06:00pm 21.1 18.4 5.5 36 7.8 SE 9 11 5 6 1017.6 1017.5 0.0
07/05:30pm 22.9 19.5 5.8 33 8.7 SE 13 17 7 9 1017.2 - 0.0
07/05:00pm 24.2 20.7 5.5 30 9.6 SE 13 17 7 9 1016.9 - 0.0
07/04:30pm 24.4 21.4 6.2 31 9.4 SE 11 17 6 9 1016.7 - 0.0
07/04:00pm 24.6 21.3 6.4 31 9.5 S 13 19 7 10 1016.4 - 0.0
07/03:30pm 25.0 22.9 6.7 31 9.6 SSW 7 19 4 10 1016.4 - 0.0
07/03:00pm 25.4 22.1 6.6 30 9.9 SSE 13 24 7 13 1016.4 1016.3 0.0
07/02:30pm 25.1 23.1 7.3 32 9.4 ESE 7 13 4 7 1016.5 - 0.0
07/02:00pm 24.5 22.1 7.2 33 9.1 SSW 9 17 5 9 1016.6 - 0.0
07/01:30pm 24.2 22.5 8.2 36 8.6 S 7 13 4 7 1016.8 - 0.0
07/01:00pm 24.2 22.1 8.2 36 8.6 SE 9 13 5 7 1017.2 - 0.0
07/12:30pm 23.6 21.8 8.1 37 8.3 WNW 7 11 4 6 1017.6 - 0.0
07/12:00pm 22.8 21.2 7.8 38 7.9 NE 6 11 3 6 1018.2 1018.1 0.0
07/11:30am 22.2 20.5 8.3 41 7.4 S 7 13 4 7 1018.7 - 0.0
07/11:00am 21.1 18.9 8.0 43 6.9 SSE 9 15 5 8 1019.0 - 0.0
07/10:30am 20.1 17.1 7.5 44 6.5 ESE 13 20 7 11 1019.3 - 0.0
07/10:00am 19.5 16.1 7.6 46 6.1 SSE 15 20 8 11 1019.7 - 0.0
07/09:30am 18.6 13.8 7.4 48 5.7 SSE 22 28 12 15 1019.8 - 0.0
07/09:00am 17.3 12.1 7.4 52 5.0 SSE 24 32 13 17 1019.7 1019.5 0.0
07/08:30am 16.2 10.2 6.9 54 4.6 SSE 28 37 15 20 1019.4 - 0.0
07/08:00am 15.2 10.9 7.2 59 4.0 SSE 19 24 10 13 1019.1 - 0.0
07/07:30am 12.8 9.9 8.3 74 2.3 SE 13 15 7 8 1018.8 - 0.0
07/07:00am 10.9 8.3 7.6 80 1.6 SSE 11 15 6 8 1018.4 - 0.0
07/06:30am 11.1 8.1 7.6 79 1.7 SSE 13 15 7 8 1018.2 - 0.0
07/06:00am 11.1 8.4 7.2 77 1.9 SSE 11 13 6 7 1018.0 1017.9 0.0
07/05:30am 11.4 8.3 7.3 76 2.0 S 13 17 7 9 1017.5 - 0.0
07/05:00am 10.8 8.1 7.5 80 1.6 S 11 13 6 7 1017.2 - 0.0
07/04:30am 11.0 9.1 7.5 79 1.7 S 7 9 4 5 1016.9 - 0.0
07/04:00am 11.2 9.3 7.5 78 1.8 SSE 7 9 4 5 1017.0 - 0.0
07/03:30am 11.6 9.9 7.5 76 2.0 S 6 9 3 5 1017.0 - 0.0
07/03:00am 11.9 10.3 7.8 76 2.0 SSE 6 6 3 3 1017.0 1016.9 0.0
07/02:30am 11.8 9.8 7.3 74 2.2 SW 7 9 4 5 1017.2 - 0.0
07/02:00am 12.3 10.7 8.2 76 2.0 SSW 6 7 3 4 1017.1 - 0.0
07/01:30am 11.6 10.4 7.9 78 1.8 SE 4 6 2 3 1017.2 - 0.0
07/01:00am 11.9 11.4 8.0 77 1.9 CALM 0 2 0 1 1017.3 - 0.0
07/12:30am 12.0 10.9 7.1 72 2.4 SW 2 6 1 3 1017.4 - 0.0
07/12:00am 14.3 12.3 8.5 68 2.9 N 9 11 5 6 1017.4 1017.3 0.0
 
Date/Time
EST
Temp
°C
App
Temp
°C
Dew
Point
Rel
Hum
%
Delta-T
°C
Wind Press
QNH
hPa
Press
MSL
hPa
Rain
since 9 am
mm
Dir
 
Spd
km/h
Gust
km/h
Spd
kts
Gust
kts
06/11:30pm 13.3 11.5 8.0 70 2.6 NNE 7 9 4 5 1017.3 - 0.0
06/11:00pm 14.8 14.4 8.3 65 3.3 CALM 0 0 0 0 1017.6 - 0.0
06/10:30pm 14.0 13.4 7.5 65 3.2 CALM 0 0 0 0 1017.8 - 0.0
06/10:00pm 15.2 13.7 8.4 64 3.5 E 6 7 3 4 1017.8 - 0.0
06/09:30pm 15.6 15.2 8.4 62 3.7 CALM 0 0 0 0 1017.8 - 0.0
06/09:00pm 15.8 14.3 8.3 61 3.8 E 6 7 3 4 1017.7 1017.6 0.0
06/08:30pm 16.7 15.3 8.9 60 4.1 SE 6 7 3 4 1017.7 - 0.0
06/08:00pm 16.8 15.1 8.5 58 4.3 SSE 7 11 4 6 1017.5 - 0.0
06/07:30pm 17.7 15.3 8.6 55 4.7 SSE 11 13 6 7 1017.4 - 0.0
06/07:00pm 17.9 16.2 8.2 53 5.0 SE 7 9 4 5 1017.2 - 0.0
06/06:30pm 18.6 16.7 7.4 48 5.7 SE 7 9 4 5 1016.9 - 0.0
06/06:00pm 20.3 18.1 7.7 44 6.5 SSE 9 9 5 5 1016.8 1016.7 0.0
06/05:30pm 22.1 19.8 7.5 39 7.6 SSE 9 11 5 6 1016.6 - 0.0
06/05:00pm 23.3 21.0 7.4 36 8.4 ESE 9 13 5 7 1016.5 - 0.0
06/04:30pm 24.0 22.2 8.0 36 8.5 ESE 7 11 4 6 1016.3 - 0.0
06/04:00pm 24.3 22.6 8.3 36 8.6 E 7 11 4 6 1016.3 - 0.0
06/03:30pm 24.6 23.4 8.1 35 8.9 N 4 11 2 6 1016.3 - 0.0
06/03:00pm 24.9 22.8 8.4 35 8.9 NNE 9 17 5 9 1016.5 1016.4 0.0
06/02:30pm 24.3 21.5 8.7 37 8.4 WSW 13 22 7 12 1016.8 - 0.0
06/02:00pm 23.9 20.8 8.7 38 8.2 WSW 15 22 8 12 1017.1 - 0.0
06/01:30pm 23.5 21.5 8.8 39 7.9 SSW 9 15 5 8 1017.5 - 0.0
06/01:00pm 24.1 22.5 8.9 38 8.3 NNW 7 15 4 8 1018.0 - 0.0
06/12:30pm 23.5 22.5 10.2 43 7.4 W 6 13 3 7 1018.6 - 0.0
06/12:00pm 22.4 21.4 10.9 48 6.4 E 7 13 4 7 1019.3 1019.1 0.0
06/11:30am 21.9 20.7 11.6 52 5.8 NE 9 15 5 8 1019.7 - 0.0
06/11:00am 20.5 19.7 11.7 57 4.9 E 7 17 4 9 1020.1 - 0.0
06/10:30am 19.8 18.8 12.3 62 4.2 NNE 9 19 5 10 1020.4 - 0.0
06/10:00am 18.5 18.1 12.3 67 3.5 ESE 6 11 3 6 1020.8 - 0.0
06/09:30am 17.8 17.2 12.3 70 3.1 ENE 7 13 4 7 1020.8 - 0.0
06/09:00am 17.3 16.5 12.8 75 2.5 ENE 9 11 5 6 1020.8 1020.7 0.0
06/08:30am 15.9 15.3 12.3 79 2.0 ENE 7 11 4 6 1020.5 - 0.0
06/08:00am 14.3 14.9 11.8 85 1.4 CALM 0 0 0 0 1020.3 - 0.0
06/07:30am 11.8 11.5 10.2 90 0.8 E 2 7 1 4 1020.0 - 0.0
06/07:00am 10.2 9.8 8.1 87 1.0 CALM 0 0 0 0 1019.9 - 0.0
06/06:30am 11.1 10.8 10.2 94 0.5 ESE 2 6 1 3 1019.8 - 0.0
06/06:00am 11.1 10.0 9.9 92 0.6 E 6 7 3 4 1019.6 1019.4 0.0
06/05:30am 11.1 9.9 9.4 89 0.9 ESE 6 7 3 4 1019.5 - 0.0
06/05:00am 10.9 9.8 8.5 85 1.2 ESE 4 7 2 4 1019.5 - 0.0
06/04:30am 11.2 9.6 8.8 85 1.2 ESE 7 9 4 5 1019.5 - 0.0
06/04:00am 11.7 10.3 9.4 86 1.2 E 7 9 4 5 1019.6 - 0.0
06/03:30am 11.9 10.4 9.1 83 1.4 ESE 7 9 4 5 1019.7 - 0.0
06/03:00am 12.1 10.6 9.3 83 1.4 ESE 7 9 4 5 1019.6 1019.4 0.0
06/02:30am 11.8 9.8 8.6 81 1.6 ESE 9 11 5 6 1019.5 - 0.0
06/02:00am 11.9 9.7 8.0 77 1.9 E 9 11 5 6 1019.6 - 0.0
06/01:30am 12.2 9.6 7.9 75 2.1 E 11 13 6 7 1019.9 - 0.0
06/01:00am 12.7 10.1 7.8 72 2.4 ESE 11 13 6 7 1019.9 - 0.0
06/12:30am 13.2 10.5 7.4 68 2.9 ESE 11 13 6 7 1020.0 - 0.0
06/12:00am 14.0 12.2 7.3 64 3.3 ESE 6 9 3 5 1020.2 1020.0 0.0
 
Date/Time
EST
Temp
°C
App
Temp
°C
Dew
Point
Rel
Hum
%
Delta-T
°C
Wind Press
QNH
hPa
Press
MSL
hPa
Rain
since 9 am
mm
Dir
 
Spd
km/h
Gust
km/h
Spd
kts
Gust
kts
05/11:30pm 14.7 13.7 7.5 62 3.6 E 2 6 1 3 1020.2 - 0.0
05/11:00pm 14.9 12.2 7.5 61 3.7 E 11 13 6 7 1020.2 - 0.0
05/10:30pm 15.3 12.7 7.6 60 3.9 E 11 13 6 7 1020.1 - 0.0
05/10:00pm 15.4 13.5 7.4 59 4.0 E 7 9 4 5 1020.1 - 0.0
05/09:30pm 14.9 12.2 7.2 60 3.8 E 11 13 6 7 1019.9 - 0.0
05/09:00pm 15.0 12.2 6.8 58 4.0 E 11 13 6 7 1019.8 1019.6 0.0
05/08:30pm 15.9 13.0 6.6 54 4.6 E 11 13 6 7 1019.7 - 0.0
05/08:00pm 16.6 13.4 7.0 53 4.8 ESE 13 15 7 8 1019.6 - 0.0
05/07:30pm 17.0 13.9 7.1 52 5.0 ESE 13 15 7 8 1019.5 - 0.0
05/07:00pm 17.9 15.0 6.4 47 5.7 ESE 11 13 6 7 1019.1 - 0.0
05/06:30pm 19.5 17.1 6.9 44 6.4 SE 9 11 5 6 1018.9 - 0.0
05/06:00pm 20.6 18.2 6.9 41 7.0 SE 9 9 5 5 1018.6 1018.5 0.0
05/05:30pm 22.3 20.4 6.5 36 8.1 ENE 6 7 3 4 1018.3 - 0.0
05/05:00pm 23.5 21.4 6.7 34 8.7 ENE 7 9 4 5 1018.1 - 0.0
05/04:30pm 23.4 20.5 6.7 34 8.7 NE 11 19 6 10 1018.0 - 0.0
05/04:00pm 24.5 21.8 7.2 33 9.1 NE 11 19 6 10 1018.0 - 0.0
05/03:30pm 24.5 21.4 7.2 33 9.1 NNE 13 20 7 11 1018.1 - 0.0
05/03:00pm 23.6 20.0 6.8 34 8.7 NNE 15 20 8 11 1018.2 1018.1 0.0
05/02:30pm 23.7 21.5 7.8 36 8.4 E 9 15 5 8 1018.4 - 0.0
05/02:00pm 23.4 20.4 7.5 36 8.4 NE 13 20 7 11 1018.6 - 0.0
05/01:30pm 23.7 21.1 7.8 36 8.4 ENE 11 19 6 10 1018.8 - 0.0
05/01:00pm 23.8 20.2 8.2 37 8.4 NNE 17 26 9 14 1019.6 - 0.0
05/12:30pm 23.4 21.6 7.9 37 8.2 ENE 7 17 4 9 1020.2 - 0.0
05/12:00pm 22.8 19.7 7.4 37 8.1 ENE 13 22 7 12 1020.9 1020.8 0.0
05/11:30am 21.9 18.4 7.3 39 7.6 NNE 15 24 8 13 1021.3 - 0.0
05/11:00am 22.3 19.6 7.3 38 7.8 NE 11 20 6 11 1021.8 - 0.0
05/10:30am 21.7 18.2 8.6 43 7.0 E 17 24 9 13 1022.1 - 0.0
05/10:00am 21.1 17.9 10.0 49 6.0 E 17 20 9 11 1022.3 - 0.0
05/09:30am 20.6 18.0 10.7 53 5.4 ENE 15 20 8 11 1022.3 - 0.0
05/09:00am 19.6 17.7 11.9 61 4.3 ENE 13 17 7 9 1022.2 1022.1 0.0
05/08:30am 18.4 17.6 12.8 70 3.2 ENE 9 11 5 6 1022.0 - 0.0
05/08:00am 17.2 16.2 12.3 73 2.7 ENE 9 11 5 6 1021.8 - 0.0
05/07:30am 16.2 14.8 12.2 77 2.2 E 11 13 6 7 1021.5 - 0.0
05/07:00am 15.0 13.9 11.8 81 1.7 ESE 9 11 5 6 1021.4 - 0.0
05/06:30am 15.0 13.9 11.8 81 1.7 ESE 9 11 5 6 1021.3 - 0.0
05/06:00am 15.2 14.0 11.6 79 1.9 E 9 9 5 5 1020.7 1020.6 0.0
05/05:30am 15.5 14.3 11.7 78 2.1 E 9 13 5 7 1020.6 - 0.0
05/05:00am 15.5 14.3 11.5 77 2.2 E 9 11 5 6 1020.5 - 0.0
05/04:30am 15.6 14.0 11.4 76 2.3 ENE 11 13 6 7 1020.3 - 0.0
05/04:00am 15.8 14.2 11.6 76 2.3 E 11 13 6 7 1020.3 - 0.0
05/03:30am 16.0 14.4 11.4 74 2.5 ESE 11 13 6 7 1020.3 - 0.0
05/03:00am 16.1 15.3 11.1 72 2.7 ENE 6 9 3 5 1020.2 1020.0 0.0
05/02:30am 16.2 14.9 11.2 72 2.7 NE 9 11 5 6 1020.0 - 0.0
05/02:00am 16.7 14.9 10.8 68 3.2 NE 11 15 6 8 1020.1 - 0.0
05/01:30am 17.5 16.1 10.9 65 3.6 ENE 9 13 5 7 1020.6 - 0.0
05/01:00am 17.3 15.8 10.4 64 3.7 E 9 9 5 5 1020.6 - 0.0
05/12:30am 17.4 15.8 10.3 63 3.8 E 9 11 5 6 1020.7 - 0.0
05/12:00am 18.1 16.5 10.2 60 4.2 ENE 9 13 5 7 1020.8 1020.7 0.0
 
Date/Time
EST
Temp
°C
App
Temp
°C
Dew
Point
Rel
Hum
%
Delta-T
°C
Wind Press
QNH
hPa
Press
MSL
hPa
Rain
since 9 am
mm
Dir
 
Spd
km/h
Gust
km/h
Spd
kts
Gust
kts
04/11:30pm 18.5 16.5 10.1 58 4.5 NE 11 15 6 8 1020.9 - 0.0
04/11:00pm 18.2 16.1 9.8 58 4.5 ENE 11 13 6 7 1020.9 - 0.0
04/10:30pm 17.9 16.6 9.8 59 4.3 E 7 9 4 5 1021.2 - 0.0
04/10:00pm 18.4 17.1 10.0 58 4.5 ENE 7 11 4 6 1021.1 - 0.0
04/09:30pm 17.8 16.2 8.9 56 4.7 E 7 9 4 5 1021.0 - 0.0
04/09:00pm 18.4 16.8 8.7 53 5.1 E 7 9 4 5 1021.0 1020.9 0.0
04/08:30pm 18.6 16.6 8.6 52 5.2 ENE 9 11 5 6 1021.0 - 0.0
04/08:00pm 18.9 16.9 8.6 51 5.4 E 9 11 5 6 1020.8 - 0.0
04/07:30pm 19.0 16.9 8.4 50 5.5 E 9 11 5 6 1020.8 - 0.0
04/07:00pm 19.1 16.9 7.8 48 5.8 ENE 9 13 5 7 1020.5 - 0.0

Other Formats:

Comma delimited format used in spreadsheet applications
http://www.bom.gov.au/fwo/IDQ60801/IDQ60801.94363.axf

JavaScript Object Notation format (JSON) in row-major order
http://www.bom.gov.au/fwo/IDQ60801/IDQ60801.94363.json